Date,TemperatureHighF,TemperatureAvgF,TemperatureLowF,DewpointHighF,DewpointAvgF,DewpointLowF,HumidityHigh,HumidityAvg,HumidityLow,PressureMaxIn,PressureMinIn,WindSpeedMaxMPH,WindSpeedAvgMPH,GustSpeedMaxMPH,PrecipitationSumIn
2013-1-1,55.9,53.0,47.7,54.0,50.9,44.0,96,92,77,30.06,29.90,9,1,15,1.54
2013-1-2,47.1,41.0,37.6,46.0,38.3,34.0,95,90,86,30.18,30.00,8,2,12,0.00
2013-1-3,44.8,36.8,28.0,34.0,30.5,26.0,92,79,51,30.36,30.16,9,2,10,0.00
2013-1-4,51.2,36.6,25.1,31.0,26.8,23.0,95,72,35,30.43,30.34,7,1,11,0.00
2013-1-5,49.6,38.5,28.7,40.0,32.9,27.0,94,82,48,30.41,30.25,2,0,3,0.11
2013-1-6,50.4,43.0,37.1,41.0,39.4,35.0,95,87,68,30.28,30.19,8,1,9,0.02
2013-1-7,57.3,40.2,27.7,39.0,32.5,27.0,96,77,42,30.34,30.24,7,1,10,0.00
2013-1-8,62.0,51.2,40.1,51.0,42.5,33.0,83,72,60,30.30,30.19,4,1,8,0.00
2013-1-9,63.0,57.8,52.4,58.0,54.0,49.0,95,87,82,30.32,30.23,5,1,8,0.06
2013-1-10,69.0,64.6,59.5,66.0,62.9,58.0,97,94,87,30.28,29.97,15,2,26,0.13
2013-1-11,68.6,65.8,62.3,66.0,63.6,61.0,96,92,85,30.10,30.01,11,2,17,0.24
2013-1-12,74.3,69.3,64.9,66.0,64.2,60.0,94,84,72,30.07,29.93,9,3,14,0.01
2013-1-13,73.3,66.1,49.9,67.0,62.8,48.0,95,89,78,30.05,29.87,10,3,16,1.33
2013-1-14,49.2,42.9,37.4,48.0,41.8,36.0,97,95,94,30.18,30.02,8,3,16,1.27
2013-1-15,50.5,45.0,40.8,50.0,44.3,40.0,98,97,96,30.08,29.91,5,1,8,0.79
2013-1-16,47.2,43.0,41.2,46.0,42.0,40.0,97,96,95,30.06,29.93,8,2,11,0.28
2013-1-17,41.4,37.8,32.6,41.0,36.3,31.0,97,94,88,30.34,29.88,16,3,20,0.49
2013-1-18,53.9,37.9,31.2,36.0,24.8,-99.9,96,73,46,30.55,30.34,7,-61,11,0.01
2013-1-19,58.1,39.1,27.1,38.0,24.4,-99.9,97,69,37,30.41,30.21,6,-59,11,0.00
2013-1-20,63.2,41.9,30.2,43.0,25.5,-99.9,97,69,43,30.23,30.10,8,-84,9,0.00
2013-1-21,54.5,37.3,32.3,44.0,13.9,-99.9,96,59,42,30.22,30.09,10,-138,14,0.00
2013-1-22,47.8,32.4,27.9,26.0,5.5,-99.9,85,48,37,30.37,30.21,6,-134,11,0.00
2013-1-23,55.2,38.5,28.3,42.0,14.0,-99.9,87,56,44,30.38,30.20,6,-147,9,0.00
2013-1-24,58.5,42.1,41.8,46.0,12.0,-99.9,93,48,37,30.30,30.17,8,-165,11,0.00
2013-1-25,66.9,47.6,43.7,57.0,22.1,-99.9,94,56,46,30.25,30.05,8,-154,21,0.12
2013-1-26,56.2,38.7,41.8,52.0,11.4,-99.9,95,60,51,30.27,30.12,6,-210,8,0.02
2013-1-27,62.7,46.9,46.6,44.0,20.6,-99.9,85,51,42,30.33,30.24,7,-134,7,0.00
2013-1-28,70.4,50.6,49.1,57.0,32.1,-99.9,93,69,60,30.30,30.16,7,-124,12,0.00
2013-1-29,73.3,53.9,53.8,66.0,31.7,-99.9,96,70,77,30.16,29.77,17,-185,21,0.00
2013-1-30,71.2,37.8,42.1,67.0,2.5,-99.9,95,58,65,29.96,29.56,14,-301,24,0.34
2013-1-31,52.5,34.7,32.3,34.0,5.9,-99.9,85,50,38,30.20,29.97,10,-176,15,0.00